sensor_id;sensor_type;location;lat;lon;timestamp;P1;durP1;ratioP1;P2;durP2;ratioP2
71777;SDS011;59609;52.430;4.668;2023-07-13T00:01:16;14.47;;;2.70;;
71777;SDS011;59609;52.430;4.668;2023-07-13T00:03:42;17.13;;;2.33;;
71777;SDS011;59609;52.430;4.668;2023-07-13T00:06:07;17.08;;;2.70;;
71777;SDS011;59609;52.430;4.668;2023-07-13T00:08:33;14.80;;;2.80;;
71777;SDS011;59609;52.430;4.668;2023-07-13T00:11:02;16.90;;;2.75;;
71777;SDS011;59609;52.430;4.668;2023-07-13T00:13:28;16.17;;;2.28;;
71777;SDS011;59609;52.430;4.668;2023-07-13T00:15:54;12.75;;;1.95;;
71777;SDS011;59609;52.430;4.668;2023-07-13T00:18:21;11.00;;;2.05;;
71777;SDS011;59609;52.430;4.668;2023-07-13T00:20:46;10.40;;;1.77;;
71777;SDS011;59609;52.430;4.668;2023-07-13T00:23:11;9.85;;;1.88;;
71777;SDS011;59609;52.430;4.668;2023-07-13T00:25:36;11.03;;;1.73;;
71777;SDS011;59609;52.430;4.668;2023-07-13T00:28:02;9.18;;;1.58;;
71777;SDS011;59609;52.430;4.668;2023-07-13T00:30:27;9.38;;;1.67;;
71777;SDS011;59609;52.430;4.668;2023-07-13T00:32:52;9.23;;;1.50;;
71777;SDS011;59609;52.430;4.668;2023-07-13T00:35:17;7.23;;;1.23;;
71777;SDS011;59609;52.430;4.668;2023-07-13T00:37:43;7.40;;;1.30;;
71777;SDS011;59609;52.430;4.668;2023-07-13T00:40:09;5.60;;;1.00;;
71777;SDS011;59609;52.430;4.668;2023-07-13T00:42:35;5.70;;;1.10;;
71777;SDS011;59609;52.430;4.668;2023-07-13T00:45:02;6.53;;;1.27;;
71777;SDS011;59609;52.430;4.668;2023-07-13T00:47:27;8.95;;;1.10;;
71777;SDS011;59609;52.430;4.668;2023-07-13T00:49:52;7.70;;;2.37;;
71777;SDS011;59609;52.430;4.668;2023-07-13T00:52:17;5.50;;;0.90;;
71777;SDS011;59609;52.430;4.668;2023-07-13T00:54:43;12.33;;;1.77;;
71777;SDS011;59609;52.430;4.668;2023-07-13T00:57:17;6.28;;;1.02;;
71777;SDS011;59609;52.430;4.668;2023-07-13T00:59:46;5.13;;;0.88;;
71777;SDS011;59609;52.430;4.668;2023-07-13T01:02:12;5.28;;;1.15;;
71777;SDS011;59609;52.430;4.668;2023-07-13T01:04:37;4.15;;;1.17;;
71777;SDS011;59609;52.430;4.668;2023-07-13T01:07:03;6.75;;;0.90;;
71777;SDS011;59609;52.430;4.668;2023-07-13T01:09:29;4.03;;;1.08;;
71777;SDS011;59609;52.430;4.668;2023-07-13T01:11:54;6.53;;;1.00;;
71777;SDS011;59609;52.430;4.668;2023-07-13T01:14:19;6.50;;;1.53;;
71777;SDS011;59609;52.430;4.668;2023-07-13T01:16:45;8.03;;;1.47;;
71777;SDS011;59609;52.430;4.668;2023-07-13T01:19:16;7.13;;;1.10;;
71777;SDS011;59609;52.430;4.668;2023-07-13T01:21:43;9.23;;;1.70;;
71777;SDS011;59609;52.430;4.668;2023-07-13T01:24:08;8.60;;;1.23;;
71777;SDS011;59609;52.430;4.668;2023-07-13T01:26:34;10.15;;;1.30;;
71777;SDS011;59609;52.430;4.668;2023-07-13T01:29:00;5.55;;;1.20;;
71777;SDS011;59609;52.430;4.668;2023-07-13T01:31:26;10.43;;;1.33;;
71777;SDS011;59609;52.430;4.668;2023-07-13T01:33:51;5.87;;;1.47;;
71777;SDS011;59609;52.430;4.668;2023-07-13T01:36:17;7.50;;;1.60;;
71777;SDS011;59609;52.430;4.668;2023-07-13T01:38:42;6.70;;;1.27;;
71777;SDS011;59609;52.430;4.668;2023-07-13T01:41:07;5.87;;;1.40;;
71777;SDS011;59609;52.430;4.668;2023-07-13T01:43:33;6.47;;;1.20;;
71777;SDS011;59609;52.430;4.668;2023-07-13T01:45:58;4.70;;;1.20;;
71777;SDS011;59609;52.430;4.668;2023-07-13T01:48:23;2.23;;;1.00;;
71777;SDS011;59609;52.430;4.668;2023-07-13T01:50:48;4.03;;;1.17;;
71777;SDS011;59609;52.430;4.668;2023-07-13T01:53:14;2.80;;;0.90;;
71777;SDS011;59609;52.430;4.668;2023-07-13T01:55:39;6.70;;;1.30;;
71777;SDS011;59609;52.430;4.668;2023-07-13T01:58:04;6.18;;;1.23;;
71777;SDS011;59609;52.430;4.668;2023-07-13T02:00:30;5.97;;;1.13;;
71777;SDS011;59609;52.430;4.668;2023-07-13T02:02:55;3.87;;;1.20;;
71777;SDS011;59609;52.430;4.668;2023-07-13T02:05:20;11.68;;;1.50;;
71777;SDS011;59609;52.430;4.668;2023-07-13T02:07:46;7.07;;;1.23;;
71777;SDS011;59609;52.430;4.668;2023-07-13T02:10:11;4.55;;;1.30;;
71777;SDS011;59609;52.430;4.668;2023-07-13T02:12:36;3.93;;;1.03;;
71777;SDS011;59609;52.430;4.668;2023-07-13T02:15:02;6.00;;;1.35;;
71777;SDS011;59609;52.430;4.668;2023-07-13T02:17:28;5.80;;;1.25;;
71777;SDS011;59609;52.430;4.668;2023-07-13T02:19:53;3.78;;;1.30;;
71777;SDS011;59609;52.430;4.668;2023-07-13T02:22:19;6.43;;;1.30;;
71777;SDS011;59609;52.430;4.668;2023-07-13T02:24:44;7.60;;;1.53;;
71777;SDS011;59609;52.430;4.668;2023-07-13T02:27:09;5.17;;;1.53;;
71777;SDS011;59609;52.430;4.668;2023-07-13T02:29:34;8.83;;;1.27;;
71777;SDS011;59609;52.430;4.668;2023-07-13T02:32:01;6.77;;;1.10;;
71777;SDS011;59609;52.430;4.668;2023-07-13T02:34:26;4.47;;;1.15;;
71777;SDS011;59609;52.430;4.668;2023-07-13T02:36:51;7.80;;;1.27;;
71777;SDS011;59609;52.430;4.668;2023-07-13T02:39:16;4.03;;;1.13;;
71777;SDS011;59609;52.430;4.668;2023-07-13T02:41:42;7.37;;;1.23;;
71777;SDS011;59609;52.430;4.668;2023-07-13T02:44:07;9.07;;;1.60;;
71777;SDS011;59609;52.430;4.668;2023-07-13T02:46:34;3.13;;;1.38;;
71777;SDS011;59609;52.430;4.668;2023-07-13T02:48:59;6.10;;;1.25;;
71777;SDS011;59609;52.430;4.668;2023-07-13T02:51:25;4.18;;;1.10;;
71777;SDS011;59609;52.430;4.668;2023-07-13T02:53:50;7.65;;;1.23;;
71777;SDS011;59609;52.430;4.668;2023-07-13T02:56:16;5.77;;;1.30;;
71777;SDS011;59609;52.430;4.668;2023-07-13T02:58:41;6.97;;;1.40;;
71777;SDS011;59609;52.430;4.668;2023-07-13T03:01:10;8.27;;;1.63;;
71777;SDS011;59609;52.430;4.668;2023-07-13T03:03:35;3.88;;;1.40;;
71777;SDS011;59609;52.430;4.668;2023-07-13T03:06:02;9.67;;;1.50;;
71777;SDS011;59609;52.430;4.668;2023-07-13T03:08:28;7.65;;;1.40;;
71777;SDS011;59609;52.430;4.668;2023-07-13T03:11:04;6.75;;;1.60;;
71777;SDS011;59609;52.430;4.668;2023-07-13T03:13:30;7.20;;;1.65;;
71777;SDS011;59609;52.430;4.668;2023-07-13T03:15:56;7.32;;;1.67;;
71777;SDS011;59609;52.430;4.668;2023-07-13T03:18:21;7.37;;;1.63;;
71777;SDS011;59609;52.430;4.668;2023-07-13T03:20:46;11.03;;;1.40;;
71777;SDS011;59609;52.430;4.668;2023-07-13T03:25:39;10.55;;;1.60;;
71777;SDS011;59609;52.430;4.668;2023-07-13T03:28:05;6.47;;;1.60;;
71777;SDS011;59609;52.430;4.668;2023-07-13T03:30:30;6.22;;;1.67;;
71777;SDS011;59609;52.430;4.668;2023-07-13T03:32:57;6.20;;;1.40;;
71777;SDS011;59609;52.430;4.668;2023-07-13T03:35:22;5.33;;;1.30;;
71777;SDS011;59609;52.430;4.668;2023-07-13T03:37:47;10.10;;;1.63;;
71777;SDS011;59609;52.430;4.668;2023-07-13T03:40:12;5.77;;;1.67;;
71777;SDS011;59609;52.430;4.668;2023-07-13T03:42:38;7.15;;;1.77;;
71777;SDS011;59609;52.430;4.668;2023-07-13T03:45:03;8.87;;;1.47;;
71777;SDS011;59609;52.430;4.668;2023-07-13T03:47:28;10.13;;;1.88;;
71777;SDS011;59609;52.430;4.668;2023-07-13T03:49:54;7.70;;;1.67;;
71777;SDS011;59609;52.430;4.668;2023-07-13T03:52:19;5.78;;;1.23;;
71777;SDS011;59609;52.430;4.668;2023-07-13T03:54:44;8.03;;;1.77;;
71777;SDS011;59609;52.430;4.668;2023-07-13T03:57:09;8.20;;;1.50;;
71777;SDS011;59609;52.430;4.668;2023-07-13T03:59:35;8.07;;;2.15;;
71777;SDS011;59609;52.430;4.668;2023-07-13T04:02:00;5.53;;;1.53;;
71777;SDS011;59609;52.430;4.668;2023-07-13T04:04:26;6.38;;;1.60;;
71777;SDS011;59609;52.430;4.668;2023-07-13T04:06:51;4.35;;;1.50;;
71777;SDS011;59609;52.430;4.668;2023-07-13T04:09:18;7.70;;;1.48;;
71777;SDS011;59609;52.430;4.668;2023-07-13T04:11:43;7.25;;;1.77;;
71777;SDS011;59609;52.430;4.668;2023-07-13T04:14:09;8.52;;;1.48;;
71777;SDS011;59609;52.430;4.668;2023-07-13T04:16:34;8.07;;;1.60;;
71777;SDS011;59609;52.430;4.668;2023-07-13T04:18:59;6.45;;;1.67;;
71777;SDS011;59609;52.430;4.668;2023-07-13T04:21:28;5.88;;;1.42;;
71777;SDS011;59609;52.430;4.668;2023-07-13T04:23:53;4.05;;;1.42;;
71777;SDS011;59609;52.430;4.668;2023-07-13T04:26:19;6.07;;;1.85;;
71777;SDS011;59609;52.430;4.668;2023-07-13T04:28:46;8.30;;;1.65;;
71777;SDS011;59609;52.430;4.668;2023-07-13T04:31:11;5.53;;;1.67;;
71777;SDS011;59609;52.430;4.668;2023-07-13T04:33:36;9.53;;;1.63;;
71777;SDS011;59609;52.430;4.668;2023-07-13T04:36:02;11.27;;;1.90;;
71777;SDS011;59609;52.430;4.668;2023-07-13T04:38:28;8.10;;;1.90;;
71777;SDS011;59609;52.430;4.668;2023-07-13T04:40:58;8.23;;;1.77;;
71777;SDS011;59609;52.430;4.668;2023-07-13T04:43:23;8.15;;;1.70;;
71777;SDS011;59609;52.430;4.668;2023-07-13T04:45:49;9.52;;;1.70;;
71777;SDS011;59609;52.430;4.668;2023-07-13T04:48:15;6.57;;;1.90;;
71777;SDS011;59609;52.430;4.668;2023-07-13T04:50:40;10.03;;;2.00;;
71777;SDS011;59609;52.430;4.668;2023-07-13T04:53:05;8.30;;;1.90;;
71777;SDS011;59609;52.430;4.668;2023-07-13T04:55:31;8.18;;;1.55;;
71777;SDS011;59609;52.430;4.668;2023-07-13T04:57:57;7.03;;;1.80;;
71777;SDS011;59609;52.430;4.668;2023-07-13T05:00:23;5.55;;;1.42;;
71777;SDS011;59609;52.430;4.668;2023-07-13T05:02:49;6.97;;;1.58;;
71777;SDS011;59609;52.430;4.668;2023-07-13T05:05:14;6.77;;;1.73;;
71777;SDS011;59609;52.430;4.668;2023-07-13T05:07:39;5.82;;;1.95;;
71777;SDS011;59609;52.430;4.668;2023-07-13T05:10:05;7.13;;;1.63;;
71777;SDS011;59609;52.430;4.668;2023-07-13T05:12:30;5.45;;;1.98;;
71777;SDS011;59609;52.430;4.668;2023-07-13T05:14:56;8.15;;;1.77;;
71777;SDS011;59609;52.430;4.668;2023-07-13T05:17:21;8.83;;;1.57;;
71777;SDS011;59609;52.430;4.668;2023-07-13T05:19:46;6.03;;;2.47;;
71777;SDS011;59609;52.430;4.668;2023-07-13T05:22:12;11.52;;;1.92;;
71777;SDS011;59609;52.430;4.668;2023-07-13T05:24:37;10.73;;;1.70;;
71777;SDS011;59609;52.430;4.668;2023-07-13T05:27:02;7.47;;;1.50;;
71777;SDS011;59609;52.430;4.668;2023-07-13T05:29:28;7.43;;;1.48;;
71777;SDS011;59609;52.430;4.668;2023-07-13T05:31:54;5.45;;;1.50;;
71777;SDS011;59609;52.430;4.668;2023-07-13T05:34:20;7.00;;;1.70;;
71777;SDS011;59609;52.430;4.668;2023-07-13T05:36:45;4.95;;;1.70;;
71777;SDS011;59609;52.430;4.668;2023-07-13T05:39:10;5.65;;;1.60;;
71777;SDS011;59609;52.430;4.668;2023-07-13T05:41:36;6.72;;;1.67;;
71777;SDS011;59609;52.430;4.668;2023-07-13T05:44:01;8.57;;;1.90;;
71777;SDS011;59609;52.430;4.668;2023-07-13T05:46:27;8.63;;;2.00;;
71777;SDS011;59609;52.430;4.668;2023-07-13T05:48:52;3.35;;;1.50;;
71777;SDS011;59609;52.430;4.668;2023-07-13T05:51:17;8.70;;;2.10;;
71777;SDS011;59609;52.430;4.668;2023-07-13T05:53:43;7.40;;;1.73;;
71777;SDS011;59609;52.430;4.668;2023-07-13T05:56:08;10.68;;;1.67;;
71777;SDS011;59609;52.430;4.668;2023-07-13T05:58:33;5.70;;;1.73;;
71777;SDS011;59609;52.430;4.668;2023-07-13T06:01:04;8.90;;;1.90;;
71777;SDS011;59609;52.430;4.668;2023-07-13T06:03:29;3.42;;;1.55;;
71777;SDS011;59609;52.430;4.668;2023-07-13T06:05:54;7.68;;;1.65;;
71777;SDS011;59609;52.430;4.668;2023-07-13T06:08:20;9.50;;;1.80;;
71777;SDS011;59609;52.430;4.668;2023-07-13T06:10:45;14.00;;;2.22;;
71777;SDS011;59609;52.430;4.668;2023-07-13T06:13:10;7.20;;;1.63;;
71777;SDS011;59609;52.430;4.668;2023-07-13T06:15:35;7.40;;;1.80;;
71777;SDS011;59609;52.430;4.668;2023-07-13T06:18:01;4.87;;;1.60;;
71777;SDS011;59609;52.430;4.668;2023-07-13T06:20:26;7.50;;;1.85;;
71777;SDS011;59609;52.430;4.668;2023-07-13T06:22:51;6.83;;;1.57;;
71777;SDS011;59609;52.430;4.668;2023-07-13T06:25:16;6.78;;;1.90;;
71777;SDS011;59609;52.430;4.668;2023-07-13T06:27:42;7.47;;;1.55;;
71777;SDS011;59609;52.430;4.668;2023-07-13T06:30:07;5.63;;;1.80;;
71777;SDS011;59609;52.430;4.668;2023-07-13T06:32:33;3.63;;;1.35;;
71777;SDS011;59609;52.430;4.668;2023-07-13T06:34:58;5.00;;;1.50;;
71777;SDS011;59609;52.430;4.668;2023-07-13T06:37:23;6.57;;;1.27;;
71777;SDS011;59609;52.430;4.668;2023-07-13T06:39:48;6.47;;;1.60;;
71777;SDS011;59609;52.430;4.668;2023-07-13T06:42:15;5.03;;;1.90;;
71777;SDS011;59609;52.430;4.668;2023-07-13T06:44:41;4.93;;;1.55;;
71777;SDS011;59609;52.430;4.668;2023-07-13T06:47:06;3.20;;;1.63;;
71777;SDS011;59609;52.430;4.668;2023-07-13T06:49:31;6.33;;;1.93;;
71777;SDS011;59609;52.430;4.668;2023-07-13T06:51:56;4.40;;;1.57;;
71777;SDS011;59609;52.430;4.668;2023-07-13T06:54:21;2.53;;;1.20;;
71777;SDS011;59609;52.430;4.668;2023-07-13T06:56:47;5.03;;;1.60;;
71777;SDS011;59609;52.430;4.668;2023-07-13T06:59:12;7.53;;;1.80;;
71777;SDS011;59609;52.430;4.668;2023-07-13T07:01:39;7.28;;;1.85;;
71777;SDS011;59609;52.430;4.668;2023-07-13T07:14:33;5.18;;;1.80;;
71777;SDS011;59609;52.430;4.668;2023-07-13T07:16:59;5.72;;;1.80;;
71777;SDS011;59609;52.430;4.668;2023-07-13T07:19:27;5.57;;;1.60;;
71777;SDS011;59609;52.430;4.668;2023-07-13T07:21:52;4.70;;;1.70;;
71777;SDS011;59609;52.430;4.668;2023-07-13T07:24:17;4.80;;;1.70;;
71777;SDS011;59609;52.430;4.668;2023-07-13T07:26:43;6.53;;;1.90;;
71777;SDS011;59609;52.430;4.668;2023-07-13T07:29:08;8.07;;;2.20;;
71777;SDS011;59609;52.430;4.668;2023-07-13T07:31:33;7.78;;;1.77;;
71777;SDS011;59609;52.430;4.668;2023-07-13T07:33:59;5.35;;;2.15;;
71777;SDS011;59609;52.430;4.668;2023-07-13T07:36:24;7.85;;;2.08;;
71777;SDS011;59609;52.430;4.668;2023-07-13T07:38:50;7.03;;;1.83;;
71777;SDS011;59609;52.430;4.668;2023-07-13T07:41:15;4.20;;;1.70;;
71777;SDS011;59609;52.430;4.668;2023-07-13T07:43:40;6.63;;;1.98;;
71777;SDS011;59609;52.430;4.668;2023-07-13T07:46:05;6.75;;;2.20;;
71777;SDS011;59609;52.430;4.668;2023-07-13T07:48:31;4.70;;;1.80;;
71777;SDS011;59609;52.430;4.668;2023-07-13T07:50:56;7.13;;;1.77;;
71777;SDS011;59609;52.430;4.668;2023-07-13T07:53:22;5.72;;;2.38;;
71777;SDS011;59609;52.430;4.668;2023-07-13T07:55:47;3.83;;;1.60;;
71777;SDS011;59609;52.430;4.668;2023-07-13T07:58:13;7.17;;;1.60;;
71777;SDS011;59609;52.430;4.668;2023-07-13T08:00:38;3.45;;;1.70;;
71777;SDS011;59609;52.430;4.668;2023-07-13T08:03:03;3.80;;;1.60;;
71777;SDS011;59609;52.430;4.668;2023-07-13T08:05:29;6.03;;;1.92;;
71777;SDS011;59609;52.430;4.668;2023-07-13T08:07:54;6.20;;;2.00;;
71777;SDS011;59609;52.430;4.668;2023-07-13T08:10:19;8.33;;;2.53;;
71777;SDS011;59609;52.430;4.668;2023-07-13T08:12:44;4.63;;;1.98;;
71777;SDS011;59609;52.430;4.668;2023-07-13T08:15:11;5.13;;;1.70;;
71777;SDS011;59609;52.430;4.668;2023-07-13T08:17:36;2.63;;;1.60;;
71777;SDS011;59609;52.430;4.668;2023-07-13T08:20:02;5.43;;;2.20;;
71777;SDS011;59609;52.430;4.668;2023-07-13T08:22:27;6.25;;;1.75;;
71777;SDS011;59609;52.430;4.668;2023-07-13T08:24:52;4.67;;;1.50;;
71777;SDS011;59609;52.430;4.668;2023-07-13T08:27:21;3.95;;;1.50;;
71777;SDS011;59609;52.430;4.668;2023-07-13T08:29:47;5.03;;;1.73;;
71777;SDS011;59609;52.430;4.668;2023-07-13T08:32:12;3.90;;;1.70;;
71777;SDS011;59609;52.430;4.668;2023-07-13T08:34:37;5.77;;;1.77;;
71777;SDS011;59609;52.430;4.668;2023-07-13T08:37:03;6.30;;;1.70;;
71777;SDS011;59609;52.430;4.668;2023-07-13T08:39:29;4.85;;;2.05;;
71777;SDS011;59609;52.430;4.668;2023-07-13T08:41:56;6.38;;;1.50;;
71777;SDS011;59609;52.430;4.668;2023-07-13T08:44:30;8.25;;;2.08;;
71777;SDS011;59609;52.430;4.668;2023-07-13T08:47:01;6.43;;;1.90;;
71777;SDS011;59609;52.430;4.668;2023-07-13T08:49:27;6.13;;;2.15;;
71777;SDS011;59609;52.430;4.668;2023-07-13T08:54:50;5.35;;;1.40;;
71777;SDS011;59609;52.430;4.668;2023-07-13T08:57:19;5.80;;;2.25;;
71777;SDS011;59609;52.430;4.668;2023-07-13T08:59:45;6.05;;;1.75;;
71777;SDS011;59609;52.430;4.668;2023-07-13T09:02:25;3.85;;;1.73;;
71777;SDS011;59609;52.430;4.668;2023-07-13T09:10:01;3.90;;;1.63;;
71777;SDS011;59609;52.430;4.668;2023-07-13T09:15:06;5.43;;;1.77;;
71777;SDS011;59609;52.430;4.668;2023-07-13T09:17:45;6.75;;;1.70;;
71777;SDS011;59609;52.430;4.668;2023-07-13T09:22:38;5.40;;;1.53;;
71777;SDS011;59609;52.430;4.668;2023-07-13T09:27:31;3.97;;;1.80;;
71777;SDS011;59609;52.430;4.668;2023-07-13T09:30:45;3.08;;;1.52;;
71777;SDS011;59609;52.430;4.668;2023-07-13T09:32:45;5.07;;;1.67;;
71777;SDS011;59609;52.430;4.668;2023-07-13T09:35:12;4.55;;;1.65;;
71777;SDS011;59609;52.430;4.668;2023-07-13T09:37:40;4.30;;;1.55;;
71777;SDS011;59609;52.430;4.668;2023-07-13T09:40:11;13.77;;;2.20;;
71777;SDS011;59609;52.430;4.668;2023-07-13T09:42:39;7.63;;;1.92;;
71777;SDS011;59609;52.430;4.668;2023-07-13T09:45:04;5.32;;;1.60;;
71777;SDS011;59609;52.430;4.668;2023-07-13T09:47:32;4.25;;;2.03;;
71777;SDS011;59609;52.430;4.668;2023-07-13T09:49:58;4.50;;;1.73;;
71777;SDS011;59609;52.430;4.668;2023-07-13T09:52:24;7.55;;;1.65;;
71777;SDS011;59609;52.430;4.668;2023-07-13T09:54:51;7.13;;;2.15;;
71777;SDS011;59609;52.430;4.668;2023-07-13T09:57:18;6.85;;;1.85;;
71777;SDS011;59609;52.430;4.668;2023-07-13T09:59:45;7.28;;;1.88;;
71777;SDS011;59609;52.430;4.668;2023-07-13T10:04:59;6.38;;;2.03;;
71777;SDS011;59609;52.430;4.668;2023-07-13T10:07:25;6.20;;;2.15;;
71777;SDS011;59609;52.430;4.668;2023-07-13T10:09:54;6.93;;;1.85;;
71777;SDS011;59609;52.430;4.668;2023-07-13T10:12:20;3.00;;;1.50;;
71777;SDS011;59609;52.430;4.668;2023-07-13T10:14:48;6.85;;;2.10;;
71777;SDS011;59609;52.430;4.668;2023-07-13T10:17:14;5.13;;;1.58;;
71777;SDS011;59609;52.430;4.668;2023-07-13T10:19:41;6.72;;;1.70;;
71777;SDS011;59609;52.430;4.668;2023-07-13T10:22:18;3.55;;;1.60;;
71777;SDS011;59609;52.430;4.668;2023-07-13T10:24:45;6.85;;;2.30;;
71777;SDS011;59609;52.430;4.668;2023-07-13T10:27:18;4.00;;;1.60;;
71777;SDS011;59609;52.430;4.668;2023-07-13T10:29:52;5.45;;;2.00;;
71777;SDS011;59609;52.430;4.668;2023-07-13T10:32:19;4.57;;;1.77;;
71777;SDS011;59609;52.430;4.668;2023-07-13T10:34:46;6.03;;;2.05;;
71777;SDS011;59609;52.430;4.668;2023-07-13T10:37:19;7.63;;;1.92;;
71777;SDS011;59609;52.430;4.668;2023-07-13T10:39:47;7.43;;;1.75;;
71777;SDS011;59609;52.430;4.668;2023-07-13T10:42:15;5.43;;;1.83;;
71777;SDS011;59609;52.430;4.668;2023-07-13T10:44:43;4.82;;;1.58;;
71777;SDS011;59609;52.430;4.668;2023-07-13T10:47:11;8.80;;;2.10;;
71777;SDS011;59609;52.430;4.668;2023-07-13T10:49:38;8.05;;;1.95;;
71777;SDS011;59609;52.430;4.668;2023-07-13T10:52:05;6.70;;;1.92;;
71777;SDS011;59609;52.430;4.668;2023-07-13T10:54:32;4.00;;;1.45;;
71777;SDS011;59609;52.430;4.668;2023-07-13T10:57:19;4.00;;;1.60;;
71777;SDS011;59609;52.430;4.668;2023-07-13T10:59:49;4.78;;;2.20;;
71777;SDS011;59609;52.430;4.668;2023-07-13T11:02:33;4.80;;;1.90;;
71777;SDS011;59609;52.430;4.668;2023-07-13T11:04:59;7.10;;;2.05;;
71777;SDS011;59609;52.430;4.668;2023-07-13T11:07:51;9.27;;;2.00;;
71777;SDS011;59609;52.430;4.668;2023-07-13T11:10:46;5.68;;;2.15;;
71777;SDS011;59609;52.430;4.668;2023-07-13T11:13:02;6.45;;;1.90;;
71777;SDS011;59609;52.430;4.668;2023-07-13T11:15:42;5.95;;;2.00;;
71777;SDS011;59609;52.430;4.668;2023-07-13T11:18:19;5.05;;;1.60;;
71777;SDS011;59609;52.430;4.668;2023-07-13T11:20:44;5.28;;;1.80;;
71777;SDS011;59609;52.430;4.668;2023-07-13T11:25:36;3.78;;;1.70;;
71777;SDS011;59609;52.430;4.668;2023-07-13T11:28:11;4.18;;;1.63;;
71777;SDS011;59609;52.430;4.668;2023-07-13T11:30:38;3.55;;;1.70;;
71777;SDS011;59609;52.430;4.668;2023-07-13T11:38:16;4.43;;;1.50;;
71777;SDS011;59609;52.430;4.668;2023-07-13T11:40:42;4.70;;;1.60;;
71777;SDS011;59609;52.430;4.668;2023-07-13T11:43:11;3.65;;;1.65;;
71777;SDS011;59609;52.430;4.668;2023-07-13T11:45:37;5.15;;;2.00;;
71777;SDS011;59609;52.430;4.668;2023-07-13T11:48:02;7.63;;;1.70;;
71777;SDS011;59609;52.430;4.668;2023-07-13T11:50:29;5.80;;;1.80;;
71777;SDS011;59609;52.430;4.668;2023-07-13T11:52:55;9.27;;;1.90;;
71777;SDS011;59609;52.430;4.668;2023-07-13T11:55:21;7.15;;;1.60;;
71777;SDS011;59609;52.430;4.668;2023-07-13T11:57:58;7.28;;;1.95;;
71777;SDS011;59609;52.430;4.668;2023-07-13T12:00:26;5.47;;;2.03;;
71777;SDS011;59609;52.430;4.668;2023-07-13T12:02:53;7.05;;;2.00;;
71777;SDS011;59609;52.430;4.668;2023-07-13T12:05:19;4.97;;;1.77;;
71777;SDS011;59609;52.430;4.668;2023-07-13T12:07:45;4.47;;;1.92;;
71777;SDS011;59609;52.430;4.668;2023-07-13T12:10:21;4.68;;;2.05;;
71777;SDS011;59609;52.430;4.668;2023-07-13T12:12:48;3.92;;;1.95;;
71777;SDS011;59609;52.430;4.668;2023-07-13T12:15:13;4.43;;;1.98;;
71777;SDS011;59609;52.430;4.668;2023-07-13T12:17:40;8.27;;;2.20;;
71777;SDS011;59609;52.430;4.668;2023-07-13T12:22:47;5.30;;;1.83;;
71777;SDS011;59609;52.430;4.668;2023-07-13T12:25:12;10.43;;;2.58;;
71777;SDS011;59609;52.430;4.668;2023-07-13T12:27:38;5.25;;;1.98;;
71777;SDS011;59609;52.430;4.668;2023-07-13T12:30:05;6.03;;;2.10;;
71777;SDS011;59609;52.430;4.668;2023-07-13T12:32:31;5.05;;;2.13;;
71777;SDS011;59609;52.430;4.668;2023-07-13T12:35:07;10.00;;;2.55;;
71777;SDS011;59609;52.430;4.668;2023-07-13T12:37:37;4.78;;;1.98;;
71777;SDS011;59609;52.430;4.668;2023-07-13T12:40:12;5.35;;;1.98;;
71777;SDS011;59609;52.430;4.668;2023-07-13T12:42:38;3.85;;;2.22;;
71777;SDS011;59609;52.430;4.668;2023-07-13T12:45:15;7.03;;;2.00;;
71777;SDS011;59609;52.430;4.668;2023-07-13T12:47:43;6.90;;;2.35;;
71777;SDS011;59609;52.430;4.668;2023-07-13T12:50:12;3.47;;;2.05;;
71777;SDS011;59609;52.430;4.668;2023-07-13T12:52:38;6.90;;;2.15;;
71777;SDS011;59609;52.430;4.668;2023-07-13T12:55:07;7.10;;;2.63;;
71777;SDS011;59609;52.430;4.668;2023-07-13T12:57:49;5.40;;;1.73;;
71777;SDS011;59609;52.430;4.668;2023-07-13T13:02:48;6.00;;;2.25;;
71777;SDS011;59609;52.430;4.668;2023-07-13T13:05:14;4.97;;;2.10;;
71777;SDS011;59609;52.430;4.668;2023-07-13T13:07:39;5.47;;;2.00;;
71777;SDS011;59609;52.430;4.668;2023-07-13T13:10:11;7.47;;;2.50;;
71777;SDS011;59609;52.430;4.668;2023-07-13T13:12:36;3.88;;;2.10;;
71777;SDS011;59609;52.430;4.668;2023-07-13T13:15:01;6.07;;;2.00;;
71777;SDS011;59609;52.430;4.668;2023-07-13T13:17:29;7.87;;;2.27;;
71777;SDS011;59609;52.430;4.668;2023-07-13T13:19:54;6.90;;;2.28;;
71777;SDS011;59609;52.430;4.668;2023-07-13T13:22:20;6.57;;;2.20;;
71777;SDS011;59609;52.430;4.668;2023-07-13T13:24:45;5.55;;;2.10;;
71777;SDS011;59609;52.430;4.668;2023-07-13T13:27:21;4.22;;;2.00;;
71777;SDS011;59609;52.430;4.668;2023-07-13T13:29:48;4.13;;;1.90;;
71777;SDS011;59609;52.430;4.668;2023-07-13T13:32:15;6.32;;;2.25;;
71777;SDS011;59609;52.430;4.668;2023-07-13T13:34:40;7.88;;;2.03;;
71777;SDS011;59609;52.430;4.668;2023-07-13T13:37:22;7.10;;;2.38;;
71777;SDS011;59609;52.430;4.668;2023-07-13T13:39:48;6.07;;;2.53;;
71777;SDS011;59609;52.430;4.668;2023-07-13T13:42:13;4.60;;;2.22;;
71777;SDS011;59609;52.430;4.668;2023-07-13T13:44:39;3.78;;;2.15;;
71777;SDS011;59609;52.430;4.668;2023-07-13T13:47:07;8.23;;;2.38;;
71777;SDS011;59609;52.430;4.668;2023-07-13T13:49:33;12.20;;;2.40;;
71777;SDS011;59609;52.430;4.668;2023-07-13T13:52:00;7.10;;;2.38;;
71777;SDS011;59609;52.430;4.668;2023-07-13T13:54:25;6.18;;;2.47;;
71777;SDS011;59609;52.430;4.668;2023-07-13T13:56:52;4.35;;;1.90;;
71777;SDS011;59609;52.430;4.668;2023-07-13T13:59:17;7.57;;;2.67;;
71777;SDS011;59609;52.430;4.668;2023-07-13T14:01:44;5.55;;;2.17;;
71777;SDS011;59609;52.430;4.668;2023-07-13T14:04:16;4.60;;;2.05;;
71777;SDS011;59609;52.430;4.668;2023-07-13T14:06:42;5.53;;;1.75;;
71777;SDS011;59609;52.430;4.668;2023-07-13T14:09:09;7.82;;;2.00;;
71777;SDS011;59609;52.430;4.668;2023-07-13T14:11:35;5.53;;;2.22;;
71777;SDS011;59609;52.430;4.668;2023-07-13T14:14:00;5.68;;;2.20;;
71777;SDS011;59609;52.430;4.668;2023-07-13T14:16:29;8.00;;;2.17;;
71777;SDS011;59609;52.430;4.668;2023-07-13T14:18:57;3.55;;;1.73;;
71777;SDS011;59609;52.430;4.668;2023-07-13T14:21:25;3.90;;;1.60;;
71777;SDS011;59609;52.430;4.668;2023-07-13T14:23:50;3.85;;;1.90;;
71777;SDS011;59609;52.430;4.668;2023-07-13T14:26:17;4.50;;;2.03;;
71777;SDS011;59609;52.430;4.668;2023-07-13T14:29:01;6.10;;;2.22;;
71777;SDS011;59609;52.430;4.668;2023-07-13T14:31:27;6.40;;;2.22;;
71777;SDS011;59609;52.430;4.668;2023-07-13T14:33:54;3.58;;;2.08;;
71777;SDS011;59609;52.430;4.668;2023-07-13T14:38:45;4.73;;;1.93;;
71777;SDS011;59609;52.430;4.668;2023-07-13T14:41:10;4.80;;;1.73;;
71777;SDS011;59609;52.430;4.668;2023-07-13T14:43:35;4.67;;;2.40;;
71777;SDS011;59609;52.430;4.668;2023-07-13T14:46:02;3.97;;;1.90;;
71777;SDS011;59609;52.430;4.668;2023-07-13T14:48:27;5.13;;;2.20;;
71777;SDS011;59609;52.430;4.668;2023-07-13T14:50:57;6.77;;;2.07;;
71777;SDS011;59609;52.430;4.668;2023-07-13T14:53:22;4.90;;;2.00;;
71777;SDS011;59609;52.430;4.668;2023-07-13T14:55:48;6.72;;;2.35;;
71777;SDS011;59609;52.430;4.668;2023-07-13T14:58:13;5.30;;;1.80;;
71777;SDS011;59609;52.430;4.668;2023-07-13T15:00:38;6.30;;;2.10;;
71777;SDS011;59609;52.430;4.668;2023-07-13T15:03:05;3.63;;;1.90;;
71777;SDS011;59609;52.430;4.668;2023-07-13T15:05:31;7.45;;;2.17;;
71777;SDS011;59609;52.430;4.668;2023-07-13T15:07:58;4.10;;;1.90;;
71777;SDS011;59609;52.430;4.668;2023-07-13T15:10:25;5.13;;;2.00;;
71777;SDS011;59609;52.430;4.668;2023-07-13T15:12:56;5.00;;;2.08;;
71777;SDS011;59609;52.430;4.668;2023-07-13T15:15:22;2.42;;;1.73;;
71777;SDS011;59609;52.430;4.668;2023-07-13T15:17:48;6.15;;;2.00;;
71777;SDS011;59609;52.430;4.668;2023-07-13T15:20:25;3.78;;;1.75;;
71777;SDS011;59609;52.430;4.668;2023-07-13T15:22:51;4.03;;;1.90;;
71777;SDS011;59609;52.430;4.668;2023-07-13T15:25:21;6.32;;;2.53;;
71777;SDS011;59609;52.430;4.668;2023-07-13T15:27:46;5.72;;;2.15;;
71777;SDS011;59609;52.430;4.668;2023-07-13T15:30:12;3.88;;;2.30;;